createdAt,value
2023-03-26T00:00:09.360Z,99013.22
2023-03-26T00:00:21.546Z,99008.97
2023-03-26T00:00:34.141Z,99004.63
2023-03-26T00:00:48.545Z,99004.56
2023-03-26T00:01:01.950Z,99001.91
2023-03-26T00:01:17.673Z,99002.63
2023-03-26T00:01:33.522Z,99005.41
2023-03-26T00:01:47.165Z,99004.56
2023-03-26T00:01:59.217Z,99008.84
2023-03-26T00:02:11.409Z,99002.63
2023-03-26T00:02:23.450Z,99000.09
2023-03-26T00:02:35.894Z,98994.19
2023-03-26T00:02:47.874Z,99001.97
2023-03-26T00:02:59.905Z,99004.56
2023-03-26T00:03:13.192Z,99006.38
2023-03-26T00:03:26.213Z,99000.22
2023-03-26T00:03:39.075Z,99002.84
2023-03-26T00:03:55.329Z,99011.41
2023-03-26T00:04:07.954Z,99000.00
2023-03-26T00:04:21.734Z,99008.75
2023-03-26T00:04:34.512Z,98999.38
2023-03-26T00:04:46.654Z,98994.88
2023-03-26T00:04:58.624Z,99001.56
2023-03-26T00:05:10.749Z,98998.19
2023-03-26T00:05:22.935Z,99000.84
2023-03-26T00:05:35.046Z,99000.88
2023-03-26T00:05:48.253Z,98999.16
2023-03-26T00:06:09.357Z,99001.19
2023-03-26T00:06:23.813Z,98996.88
2023-03-26T00:06:39.428Z,99004.66
2023-03-26T00:06:52.027Z,99006.47
2023-03-26T00:07:04.197Z,99006.25
2023-03-26T00:07:16.682Z,99004.66
2023-03-26T00:07:28.715Z,99004.19
2023-03-26T00:07:41.229Z,99009.22
2023-03-26T00:07:53.215Z,99004.88
2023-03-26T00:08:05.778Z,99011.78
2023-03-26T00:08:17.910Z,99004.13
2023-03-26T00:08:29.930Z,99005.78
2023-03-26T00:08:44.895Z,99010.28
2023-03-26T00:08:58.304Z,99006.69
2023-03-26T00:09:13.247Z,99015.41
2023-03-26T00:09:25.956Z,99009.31
2023-03-26T00:09:38.142Z,99012.75
2023-03-26T00:09:50.104Z,99014.28
2023-03-26T00:10:02.131Z,99009.19
2023-03-26T00:10:15.343Z,99017.13
2023-03-26T00:10:27.346Z,99012.28
2023-03-26T00:10:40.644Z,99015.41
2023-03-26T00:10:52.604Z,99014.31
2023-03-26T00:11:06.639Z,99014.94
2023-03-26T00:11:21.924Z,99008.78
2023-03-26T00:11:34.738Z,99019.16
2023-03-26T00:11:46.781Z,99006.16
2023-03-26T00:11:58.809Z,99017.25
2023-03-26T00:12:10.783Z,99017.69
2023-03-26T00:12:22.746Z,99013.34
2023-03-26T00:12:34.885Z,99012.38
2023-03-26T00:12:47.106Z,99016.09
2023-03-26T00:12:59.106Z,99015.81
2023-03-26T00:13:11.708Z,99020.00
2023-03-26T00:13:23.704Z,99012.03
2023-03-26T00:13:36.048Z,99017.41
2023-03-26T00:13:48.772Z,99012.09
2023-03-26T00:14:00.824Z,99013.59
2023-03-26T00:14:13.847Z,99015.13
2023-03-26T00:14:26.810Z,99013.16
2023-03-26T00:14:40.774Z,99013.88
2023-03-26T00:14:55.288Z,99009.38
2023-03-26T00:15:10.378Z,99016.06
2023-03-26T00:15:22.349Z,99015.03
2023-03-26T00:15:37.510Z,99016.59
2023-03-26T00:15:49.528Z,99000.97
2023-03-26T00:16:02.199Z,99005.19
2023-03-26T00:16:17.359Z,99014.59
2023-03-26T00:16:31.551Z,99010.97
2023-03-26T00:16:44.267Z,99010.88
2023-03-26T00:16:56.322Z,99016.84
2023-03-26T00:17:08.361Z,99009.03
2023-03-26T00:17:21.258Z,99015.00
2023-03-26T00:17:33.392Z,99007.16
2023-03-26T00:17:48.333Z,99012.25
2023-03-26T00:18:00.787Z,99010.44
2023-03-26T00:18:12.861Z,99012.13
2023-03-26T00:18:30.112Z,99010.31
2023-03-26T00:18:42.776Z,99022.59
2023-03-26T00:18:55.214Z,99016.69
2023-03-26T00:19:08.057Z,99017.88
2023-03-26T00:19:20.622Z,99014.38
2023-03-26T00:19:33.823Z,99018.66
2023-03-26T00:19:45.736Z,99016.06
2023-03-26T00:19:59.652Z,99013.00
2023-03-26T00:20:12.954Z,99018.19
2023-03-26T00:20:26.041Z,99019.19
2023-03-26T00:20:38.367Z,99015.25
2023-03-26T00:20:51.623Z,99019.59
2023-03-26T00:21:06.113Z,99021.47
2023-03-26T00:21:21.237Z,99017.34
2023-03-26T00:21:33.272Z,99020.84
2023-03-26T00:21:45.332Z,99016.63
2023-03-26T00:21:57.759Z,99026.13
2023-03-26T00:22:13.522Z,99024.53
2023-03-26T00:22:26.480Z,99014.31
2023-03-26T00:22:40.364Z,99021.16
2023-03-26T00:22:53.417Z,99023.75
2023-03-26T00:23:05.406Z,99016.09
2023-03-26T00:23:17.645Z,99020.44
2023-03-26T00:23:31.223Z,99021.34
2023-03-26T00:23:43.783Z,99020.44
2023-03-26T00:24:04.233Z,99019.34
2023-03-26T00:24:17.377Z,99020.06
2023-03-26T00:24:30.393Z,99016.50
2023-03-26T00:24:45.912Z,99015.56
2023-03-26T00:24:59.341Z,99018.06
2023-03-26T00:25:11.624Z,99019.84
2023-03-26T00:25:23.697Z,99019.16
2023-03-26T00:25:41.244Z,99024.50
2023-03-26T00:25:53.608Z,99020.06
2023-03-26T00:26:10.463Z,99017.47
2023-03-26T00:26:22.528Z,99018.25
2023-03-26T00:26:35.576Z,99024.19
2023-03-26T00:26:53.008Z,99020.63
2023-03-26T00:27:05.648Z,99018.06
2023-03-26T00:27:17.634Z,99020.53
2023-03-26T00:27:29.586Z,99022.19
2023-03-26T00:27:41.858Z,99023.94
2023-03-26T00:27:53.844Z,99023.00
2023-03-26T00:28:07.628Z,99021.34
2023-03-26T00:28:22.745Z,99020.44
2023-03-26T00:28:35.065Z,99019.59
2023-03-26T00:28:50.808Z,99027.31
2023-03-26T00:29:04.125Z,99022.22
2023-03-26T00:29:16.925Z,99024.78
2023-03-26T00:29:28.896Z,99024.72
2023-03-26T00:29:41.098Z,99015.16
2023-03-26T00:29:56.479Z,99019.41
2023-03-26T00:30:09.346Z,99014.13
2023-03-26T00:30:21.842Z,99014.94
2023-03-26T00:30:35.697Z,99026.09
2023-03-26T00:30:59.531Z,99023.38
2023-03-26T00:31:14.639Z,99021.56
2023-03-26T00:31:27.903Z,99021.47
2023-03-26T00:31:46.700Z,99019.69
2023-03-26T00:31:59.447Z,99019.69
2023-03-26T00:32:11.587Z,99023.16
2023-03-26T00:32:30.716Z,99017.97
2023-03-26T00:32:43.848Z,99024.00
2023-03-26T00:33:07.772Z,99021.47
2023-03-26T00:33:19.829Z,99026.75
2023-03-26T00:33:32.908Z,99018.53
2023-03-26T00:33:45.506Z,99022.00
2023-03-26T00:33:57.731Z,99016.06
2023-03-26T00:34:10.404Z,99025.69
2023-03-26T00:34:23.008Z,99024.84
2023-03-26T00:34:35.156Z,99017.88
2023-03-26T00:34:47.243Z,99029.91
2023-03-26T00:35:00.898Z,99022.13
2023-03-26T00:35:14.080Z,99021.22
2023-03-26T00:35:26.487Z,99025.50
2023-03-26T00:35:38.849Z,99021.97
2023-03-26T00:35:56.821Z,99022.75
2023-03-26T00:36:15.304Z,99024.03
2023-03-26T00:36:27.350Z,99024.19
2023-03-26T00:36:42.315Z,99020.94
2023-03-26T00:36:54.847Z,99021.81
2023-03-26T00:37:08.854Z,99026.03
2023-03-26T00:37:26.307Z,99026.47
2023-03-26T00:37:38.833Z,99023.06
2023-03-26T00:37:51.618Z,99017.78
2023-03-26T00:38:03.745Z,99015.88
2023-03-26T00:38:16.461Z,99022.75
2023-03-26T00:38:28.743Z,99020.91
2023-03-26T00:38:42.305Z,99017.34
2023-03-26T00:38:55.315Z,99016.50
2023-03-26T00:39:07.391Z,99016.41
2023-03-26T00:39:19.852Z,99018.09
2023-03-26T00:39:33.960Z,99015.47
2023-03-26T00:39:49.148Z,99016.25
2023-03-26T00:40:07.143Z,99017.13
2023-03-26T00:40:19.526Z,99010.31
2023-03-26T00:40:32.159Z,99018.06
2023-03-26T00:40:44.353Z,99017.13
2023-03-26T00:41:06.080Z,99007.63
2023-03-26T00:41:23.223Z,99011.88
2023-03-26T00:41:42.832Z,99017.84
2023-03-26T00:41:55.396Z,99013.50
2023-03-26T00:42:08.144Z,99017.75
2023-03-26T00:42:20.675Z,99011.66
2023-03-26T00:42:33.242Z,99007.50
2023-03-26T00:42:45.279Z,99015.34
2023-03-26T00:42:57.317Z,99012.69
2023-03-26T00:43:10.175Z,99013.56
2023-03-26T00:43:22.856Z,99017.03
2023-03-26T00:43:36.009Z,99012.69
2023-03-26T00:43:49.520Z,99013.56
2023-03-26T00:44:01.658Z,99012.69
2023-03-26T00:44:13.617Z,99012.75
2023-03-26T00:44:25.544Z,99010.16
2023-03-26T00:44:37.480Z,99015.34
2023-03-26T00:44:51.147Z,99008.44
2023-03-26T00:45:07.393Z,99008.38
2023-03-26T00:45:21.338Z,99012.69
2023-03-26T00:45:33.357Z,99014.75
2023-03-26T00:45:54.184Z,99010.38
2023-03-26T00:46:06.813Z,99018.13
2023-03-26T00:46:19.630Z,99012.91
2023-03-26T00:46:32.214Z,99010.28
2023-03-26T00:46:44.371Z,99008.56
2023-03-26T00:46:56.393Z,99008.53
2023-03-26T00:47:08.351Z,99014.63
2023-03-26T00:47:21.339Z,99014.63
2023-03-26T00:47:34.590Z,99012.81
2023-03-26T00:47:47.055Z,99009.38
2023-03-26T00:47:59.054Z,99004.97
2023-03-26T00:48:11.540Z,99009.31
2023-03-26T00:48:31.559Z,99011.88
2023-03-26T00:48:50.736Z,99004.88
2023-03-26T00:49:04.022Z,99006.59
2023-03-26T00:49:16.009Z,99006.59
2023-03-26T00:49:30.508Z,99009.97
2023-03-26T00:49:42.458Z,99008.16
2023-03-26T00:49:54.859Z,99008.09
2023-03-26T00:50:15.176Z,99013.22
2023-03-26T00:50:27.150Z,99004.50
2023-03-26T00:50:39.622Z,99006.19
2023-03-26T00:50:51.587Z,99002.63
2023-03-26T00:51:03.783Z,99009.53
2023-03-26T00:51:17.435Z,99009.53
2023-03-26T00:51:29.873Z,98999.16
2023-03-26T00:51:41.952Z,99007.72
2023-03-26T00:51:54.011Z,99005.06
2023-03-26T00:52:08.640Z,99006.75
2023-03-26T00:52:20.911Z,99001.56
2023-03-26T00:52:33.077Z,99003.34
2023-03-26T00:52:46.200Z,99005.94
2023-03-26T00:52:58.785Z,99000.75
2023-03-26T00:53:12.133Z,98999.03
2023-03-26T00:53:24.166Z,98997.22
2023-03-26T00:53:38.868Z,99000.75
2023-03-26T00:53:51.441Z,98990.38
2023-03-26T00:54:03.608Z,98997.22
2023-03-26T00:54:15.685Z,98995.44
2023-03-26T00:54:28.507Z,99000.63
2023-03-26T00:54:40.854Z,98994.53
2023-03-26T00:54:52.804Z,98997.09
2023-03-26T00:55:05.124Z,98993.63
2023-03-26T00:55:17.527Z,98995.34
2023-03-26T00:55:29.511Z,98991.00
2023-03-26T00:55:43.385Z,98991.81
2023-03-26T00:56:00.458Z,98989.19
2023-03-26T00:56:13.512Z,98996.91
2023-03-26T00:56:25.899Z,98995.19
2023-03-26T00:56:38.684Z,98992.56
2023-03-26T00:56:50.923Z,98993.41
2023-03-26T00:57:06.853Z,98987.38
2023-03-26T00:57:34.654Z,98983.91
2023-03-26T00:57:47.739Z,98991.59
2023-03-26T00:57:59.769Z,98992.50
2023-03-26T00:58:12.777Z,98994.19
2023-03-26T00:58:24.838Z,98993.31
2023-03-26T00:58:37.509Z,98983.78
2023-03-26T00:58:52.637Z,98988.13
2023-03-26T00:59:04.678Z,98989.00
2023-03-26T00:59:17.061Z,98988.22
2023-03-26T00:59:30.299Z,98983.91
2023-03-26T00:59:42.321Z,98983.91
2023-03-26T00:59:54.249Z,98981.34
2023-03-26T01:00:11.063Z,98990.03
2023-03-26T01:00:36.398Z,98983.03
2023-03-26T01:00:59.512Z,98987.31
2023-03-26T01:01:15.336Z,98975.25
2023-03-26T01:01:29.330Z,98976.19
2023-03-26T01:01:41.502Z,98976.28
2023-03-26T01:01:55.245Z,98982.25
2023-03-26T01:02:11.761Z,98978.06
2023-03-26T01:02:25.138Z,98980.63
2023-03-26T01:02:37.357Z,98984.97
2023-03-26T01:02:49.415Z,98980.63
2023-03-26T01:03:02.526Z,98981.53
2023-03-26T01:03:27.825Z,98974.59
2023-03-26T01:03:45.910Z,98979.72
2023-03-26T01:04:30.578Z,98972.91
2023-03-26T01:04:48.509Z,98978.06
2023-03-26T01:05:04.017Z,98984.13
2023-03-26T01:05:36.860Z,98974.66
2023-03-26T01:05:54.969Z,98972.09
2023-03-26T01:06:35.720Z,98972.00
2023-03-26T01:06:47.973Z,98969.41
2023-03-26T01:07:22.707Z,98978.94
2023-03-26T01:07:35.162Z,98978.88
2023-03-26T01:07:47.372Z,98969.41
2023-03-26T01:08:03.679Z,98970.31
2023-03-26T01:08:33.736Z,98971.22
2023-03-26T01:08:48.728Z,98971.22
2023-03-26T01:09:11.746Z,98971.22
2023-03-26T01:09:30.796Z,98973.81
2023-03-26T01:09:50.121Z,98976.41
2023-03-26T01:10:05.210Z,98976.41
2023-03-26T01:10:22.614Z,98966.88
2023-03-26T01:10:38.623Z,98978.06
2023-03-26T01:10:52.517Z,98967.72
2023-03-26T01:11:14.165Z,98974.59
2023-03-26T01:11:29.873Z,98966.03
2023-03-26T01:11:42.191Z,98967.75
2023-03-26T01:11:54.289Z,98964.31
2023-03-26T01:12:08.652Z,98963.50
2023-03-26T01:12:23.974Z,98965.25
2023-03-26T01:12:36.008Z,98970.34
2023-03-26T01:12:47.942Z,98971.22
2023-03-26T01:12:59.932Z,98967.84
2023-03-26T01:13:11.893Z,98970.34
2023-03-26T01:13:24.602Z,98973.03
2023-03-26T01:13:38.323Z,98966.13
2023-03-26T01:13:54.712Z,98965.25
2023-03-26T01:14:12.961Z,98960.06
2023-03-26T01:14:26.833Z,98964.31
2023-03-26T01:14:39.695Z,98966.03
2023-03-26T01:14:55.071Z,98965.16
2023-03-26T01:15:08.290Z,98959.16
2023-03-26T01:15:20.305Z,98959.97
2023-03-26T01:15:32.527Z,98959.16
2023-03-26T01:15:50.883Z,98961.75
2023-03-26T01:16:09.850Z,98961.78
2023-03-26T01:16:45.101Z,98964.38
2023-03-26T01:17:00.384Z,98967.84
2023-03-26T01:17:13.240Z,98964.38
2023-03-26T01:17:33.847Z,98962.66
2023-03-26T01:17:46.340Z,98955.75
2023-03-26T01:17:59.006Z,98957.47
2023-03-26T01:18:14.062Z,98960.94
2023-03-26T01:18:26.470Z,98964.56
2023-03-26T01:18:41.052Z,98958.59
2023-03-26T01:18:53.810Z,98961.16
2023-03-26T01:19:12.949Z,98956.13
2023-03-26T01:19:33.816Z,98957.06
2023-03-26T01:19:48.813Z,98951.03
2023-03-26T01:20:15.038Z,98959.72
2023-03-26T01:20:30.470Z,98958.03
2023-03-26T01:20:46.772Z,98957.28
2023-03-26T01:21:05.180Z,98956.44
2023-03-26T01:21:28.482Z,98956.44
2023-03-26T01:21:40.559Z,98958.25
2023-03-26T01:21:52.538Z,98957.34
2023-03-26T01:22:07.084Z,98953.06
2023-03-26T01:22:21.934Z,98954.88
2023-03-26T01:22:36.655Z,98953.97
2023-03-26T01:22:53.225Z,98958.19
2023-03-26T01:23:07.265Z,98953.84
2023-03-26T01:23:24.632Z,98949.47
2023-03-26T01:23:49.018Z,98948.56
2023-03-26T01:24:05.094Z,98948.50
2023-03-26T01:24:17.165Z,98953.69
2023-03-26T01:24:29.147Z,98948.50
2023-03-26T01:24:42.447Z,98953.63
2023-03-26T01:24:56.483Z,98945.84
2023-03-26T01:25:09.551Z,98947.56
2023-03-26T01:25:27.916Z,98955.34
2023-03-26T01:25:48.124Z,98941.50
2023-03-26T01:26:12.019Z,98951.03
2023-03-26T01:26:28.112Z,98945.97
2023-03-26T01:27:01.545Z,98949.47
2023-03-26T01:27:33.777Z,98953.84
2023-03-26T01:27:51.915Z,98940.91
2023-03-26T01:28:08.744Z,98945.19
2023-03-26T01:28:21.693Z,98949.59
2023-03-26T01:28:36.485Z,98946.19
2023-03-26T01:28:51.234Z,98943.63
2023-03-26T01:29:04.940Z,98944.53
2023-03-26T01:29:22.302Z,98946.31
2023-03-26T01:29:52.615Z,98941.22
2023-03-26T01:30:42.254Z,98948.19
2023-03-26T01:31:14.963Z,98941.44
2023-03-26T01:31:30.145Z,98941.44
2023-03-26T01:32:03.173Z,98931.06
2023-03-26T01:32:46.223Z,98939.75
2023-03-26T01:33:22.814Z,98934.59
2023-03-26T01:33:47.557Z,98930.28
2023-03-26T01:34:34.281Z,98932.88
2023-03-26T01:35:07.680Z,98932.16
2023-03-26T01:36:00.694Z,98932.38
2023-03-26T01:36:26.040Z,98927.25
2023-03-26T01:36:52.697Z,98923.81
2023-03-26T01:37:25.223Z,98922.91
2023-03-26T01:37:58.490Z,98925.56
2023-03-26T01:38:22.896Z,98922.91
2023-03-26T01:38:35.505Z,98927.25
2023-03-26T01:39:11.080Z,98924.66
2023-03-26T01:39:31.894Z,98915.97
2023-03-26T01:39:49.593Z,98924.66
2023-03-26T01:40:18.115Z,98922.06
2023-03-26T01:40:38.458Z,98926.34
2023-03-26T01:40:59.781Z,98923.69
2023-03-26T01:41:35.302Z,98918.34
2023-03-26T01:42:08.328Z,98927.81
2023-03-26T01:42:33.118Z,98918.28
2023-03-26T01:42:48.197Z,98920.94
2023-03-26T01:43:28.650Z,98918.34
2023-03-26T01:44:08.695Z,98921.72
2023-03-26T01:44:30.096Z,98924.31
2023-03-26T01:44:46.577Z,98920.84
2023-03-26T01:45:11.888Z,98919.13
2023-03-26T01:45:32.538Z,98915.72
2023-03-26T01:45:48.147Z,98914.06
2023-03-26T01:46:04.113Z,98914.97
2023-03-26T01:46:17.854Z,98922.72
2023-03-26T01:46:36.971Z,98925.31
2023-03-26T01:46:51.550Z,98919.47
2023-03-26T01:47:07.472Z,98915.97
2023-03-26T01:47:21.903Z,98915.16
2023-03-26T01:47:37.067Z,98919.47
2023-03-26T01:47:50.557Z,98913.53
2023-03-26T01:48:02.992Z,98917.88
2023-03-26T01:48:15.498Z,98919.66
2023-03-26T01:48:42.992Z,98919.66
2023-03-26T01:48:55.928Z,98917.88
2023-03-26T01:49:13.381Z,98920.50
2023-03-26T01:49:28.338Z,98919.66
2023-03-26T01:49:40.479Z,98917.88
2023-03-26T01:49:52.589Z,98909.19
2023-03-26T01:50:05.300Z,98917.75
2023-03-26T01:50:17.533Z,98911.72
2023-03-26T01:50:29.841Z,98916.91
2023-03-26T01:50:42.115Z,98916.06
2023-03-26T01:50:56.452Z,98917.88
2023-03-26T01:51:10.557Z,98917.88
2023-03-26T01:51:29.535Z,98911.78
2023-03-26T01:51:42.962Z,98915.19
2023-03-26T01:51:56.895Z,98915.13
2023-03-26T01:52:16.176Z,98912.56
2023-03-26T01:52:28.668Z,98910.88
2023-03-26T01:52:40.971Z,98914.31
2023-03-26T01:52:53.153Z,98910.88
2023-03-26T01:53:06.063Z,98910.88
2023-03-26T01:53:18.612Z,98910.88
2023-03-26T01:53:33.385Z,98909.97
2023-03-26T01:53:47.801Z,98907.38
2023-03-26T01:54:03.649Z,98907.50
2023-03-26T01:54:24.836Z,98910.09
2023-03-26T01:54:37.442Z,98912.56
2023-03-26T01:54:50.394Z,98898.75
2023-03-26T01:55:02.913Z,98905.63
2023-03-26T01:55:15.076Z,98900.34
2023-03-26T01:55:43.626Z,98907.19
2023-03-26T01:56:15.545Z,98904.78
2023-03-26T01:56:52.236Z,98907.38
2023-03-26T01:57:29.613Z,98906.63
2023-03-26T01:57:54.444Z,98904.06
2023-03-26T01:58:38.088Z,98899.75
2023-03-26T01:59:16.731Z,98897.16
2023-03-26T01:59:43.484Z,98897.25
2023-03-26T02:00:18.116Z,98898.09
2023-03-26T02:00:42.104Z,98894.81
2023-03-26T02:01:12.690Z,98897.63
2023-03-26T02:01:36.558Z,98897.59
2023-03-26T02:01:54.933Z,98900.88
2023-03-26T02:02:11.658Z,98900.84
2023-03-26T02:02:34.969Z,98895.66
2023-03-26T02:02:54.942Z,98898.38
2023-03-26T02:03:31.688Z,98892.19
2023-03-26T02:03:50.572Z,98891.22
2023-03-26T02:04:21.194Z,98900.75
2023-03-26T02:04:45.853Z,98896.50
2023-03-26T02:05:09.623Z,98892.28
2023-03-26T02:06:18.686Z,98890.63
2023-03-26T02:06:44.656Z,98892.28
2023-03-26T02:07:09.207Z,98889.59
2023-03-26T02:07:42.425Z,98892.19
2023-03-26T02:08:05.390Z,98889.59
2023-03-26T02:08:22.632Z,98887.91
2023-03-26T02:08:42.483Z,98879.28
2023-03-26T02:09:05.628Z,98886.16
2023-03-26T02:09:24.745Z,98882.63
2023-03-26T02:09:45.792Z,98877.38
2023-03-26T02:10:05.429Z,98884.34
2023-03-26T02:10:24.507Z,98876.66
2023-03-26T02:10:41.667Z,98884.28
2023-03-26T02:10:58.054Z,98884.44
2023-03-26T02:11:13.495Z,98883.63
2023-03-26T02:11:34.640Z,98885.34
2023-03-26T02:11:48.680Z,98876.66
2023-03-26T02:12:03.634Z,98879.13
2023-03-26T02:12:17.171Z,98874.72
2023-03-26T02:12:30.170Z,98881.63
2023-03-26T02:12:43.767Z,98877.28
2023-03-26T02:12:57.598Z,98870.38
2023-03-26T02:13:10.852Z,98879.91
2023-03-26T02:13:24.212Z,98871.25
2023-03-26T02:13:37.268Z,98875.66
2023-03-26T02:13:50.562Z,98879.91
2023-03-26T02:14:05.578Z,98872.19
2023-03-26T02:14:17.961Z,98875.69
2023-03-26T02:14:30.896Z,98877.31
2023-03-26T02:14:44.124Z,98877.44
2023-03-26T02:14:56.134Z,98873.91
2023-03-26T02:15:08.732Z,98872.94
2023-03-26T02:15:21.018Z,98874.84
2023-03-26T02:15:33.348Z,98872.31
2023-03-26T02:16:00.498Z,98864.38
2023-03-26T02:16:16.262Z,98863.41
2023-03-26T02:16:28.452Z,98867.69
2023-03-26T02:16:40.781Z,98864.19
2023-03-26T02:16:52.726Z,98858.16
2023-03-26T02:17:05.002Z,98864.19
2023-03-26T02:17:19.076Z,98863.34
2023-03-26T02:17:32.586Z,98868.59
2023-03-26T02:17:44.643Z,98865.16
2023-03-26T02:17:56.646Z,98865.16
2023-03-26T02:18:10.876Z,98867.88
2023-03-26T02:18:24.297Z,98859.31
2023-03-26T02:18:36.516Z,98864.50
2023-03-26T02:18:51.258Z,98863.59
2023-03-26T02:19:04.409Z,98870.38
2023-03-26T02:19:21.356Z,98862.56
2023-03-26T02:19:33.365Z,98862.69
2023-03-26T02:19:45.289Z,98860.91
2023-03-26T02:19:57.229Z,98858.31
2023-03-26T02:20:12.460Z,98862.56
2023-03-26T02:20:25.650Z,98856.50
2023-03-26T02:20:37.770Z,98856.50
2023-03-26T02:20:53.041Z,98859.09
2023-03-26T02:21:06.736Z,98854.75
2023-03-26T02:21:21.373Z,98853.06
2023-03-26T02:21:33.943Z,98856.41
2023-03-26T02:21:47.535Z,98859.00
2023-03-26T02:21:59.857Z,98855.53
2023-03-26T02:22:15.586Z,98860.56
2023-03-26T02:22:30.306Z,98853.72
2023-03-26T02:22:45.619Z,98857.31
2023-03-26T02:22:57.993Z,98853.91
2023-03-26T02:23:09.959Z,98853.97
2023-03-26T02:23:22.004Z,98857.44
2023-03-26T02:23:35.862Z,98852.22
2023-03-26T02:24:03.242Z,98850.63
2023-03-26T02:24:15.573Z,98852.44
2023-03-26T02:24:27.722Z,98849.06
2023-03-26T02:24:39.659Z,98850.75
2023-03-26T02:24:51.593Z,98854.19
2023-03-26T02:25:03.651Z,98851.56
2023-03-26T02:25:18.589Z,98854.97
2023-03-26T02:25:30.841Z,98849.91
2023-03-26T02:25:43.878Z,98853.41
2023-03-26T02:25:56.088Z,98848.22
2023-03-26T02:26:09.847Z,98851.66
2023-03-26T02:26:21.810Z,98849.19
2023-03-26T02:26:35.956Z,98847.38
2023-03-26T02:26:47.938Z,98851.66
2023-03-26T02:27:02.170Z,98852.44
2023-03-26T02:27:18.305Z,98846.38
2023-03-26T02:27:30.815Z,98848.97
2023-03-26T02:27:44.184Z,98851.56
2023-03-26T02:27:56.559Z,98846.41
2023-03-26T02:28:09.023Z,98847.25
2023-03-26T02:28:21.509Z,98852.44
2023-03-26T02:28:34.042Z,98848.00
2023-03-26T02:28:46.657Z,98845.38
2023-03-26T02:28:59.334Z,98850.53
2023-03-26T02:29:13.989Z,98852.25
2023-03-26T02:29:27.092Z,98855.72
2023-03-26T02:29:40.720Z,98851.31
2023-03-26T02:29:53.216Z,98858.16
2023-03-26T02:30:08.815Z,98851.22
2023-03-26T02:30:26.234Z,98850.34
2023-03-26T02:30:40.206Z,98843.47
2023-03-26T02:30:52.525Z,98852.03
2023-03-26T02:31:05.542Z,98840.00
2023-03-26T02:31:19.659Z,98852.09
2023-03-26T02:31:32.181Z,98851.97
2023-03-26T02:31:44.554Z,98851.13
2023-03-26T02:31:56.975Z,98848.50
2023-03-26T02:32:14.607Z,98841.75
2023-03-26T02:32:29.172Z,98851.19
2023-03-26T02:32:43.950Z,98845.94
2023-03-26T02:32:59.439Z,98844.19
2023-03-26T02:33:15.392Z,98845.16
2023-03-26T02:33:31.956Z,98840.00
2023-03-26T02:33:47.817Z,98843.53
2023-03-26T02:34:00.007Z,98844.44
2023-03-26T02:34:12.387Z,98847.88
2023-03-26T02:34:24.606Z,98845.38
2023-03-26T02:34:37.096Z,98847.03
2023-03-26T02:34:51.496Z,98841.03
2023-03-26T02:35:05.541Z,98838.47
2023-03-26T02:35:18.007Z,98848.03
2023-03-26T02:35:33.445Z,98845.47
2023-03-26T02:35:46.239Z,98841.97
2023-03-26T02:36:02.164Z,98836.81
2023-03-26T02:36:14.718Z,98835.22
2023-03-26T02:36:32.971Z,98840.41
2023-03-26T02:36:45.567Z,98835.31
2023-03-26T02:36:57.900Z,98838.69
2023-03-26T02:37:10.468Z,98839.44
2023-03-26T02:37:22.909Z,98836.06
2023-03-26T02:37:35.309Z,98836.06
2023-03-26T02:37:51.247Z,98834.31
2023-03-26T02:38:03.587Z,98833.53
2023-03-26T02:38:15.788Z,98838.69
2023-03-26T02:38:35.333Z,98837.03
2023-03-26T02:38:47.825Z,98831.84
2023-03-26T02:39:00.424Z,98835.31
2023-03-26T02:39:14.433Z,98831.84
2023-03-26T02:39:27.259Z,98832.69
2023-03-26T02:39:39.958Z,98834.44
2023-03-26T02:39:52.257Z,98833.53
2023-03-26T02:40:10.629Z,98837.03
2023-03-26T02:40:23.002Z,98836.16
2023-03-26T02:40:35.266Z,98830.94
2023-03-26T02:40:47.699Z,98829.13
2023-03-26T02:41:00.626Z,98832.50
2023-03-26T02:41:12.756Z,98835.94
2023-03-26T02:41:25.132Z,98829.81
2023-03-26T02:41:38.355Z,98833.31
2023-03-26T02:41:50.340Z,98831.53
2023-03-26T02:42:05.236Z,98832.41
2023-03-26T02:42:17.374Z,98833.19
2023-03-26T02:42:29.913Z,98839.31
2023-03-26T02:42:41.864Z,98829.81
2023-03-26T02:42:54.167Z,98834.13
2023-03-26T02:43:06.373Z,98835.00
2023-03-26T02:43:18.990Z,98829.81
2023-03-26T02:43:31.548Z,98829.88
2023-03-26T02:43:43.745Z,98826.44
2023-03-26T02:43:56.034Z,98828.25
2023-03-26T02:44:08.518Z,98828.34
2023-03-26T02:44:21.138Z,98830.94
2023-03-26T02:44:33.385Z,98826.66
2023-03-26T02:44:47.652Z,98826.66
2023-03-26T02:44:59.668Z,98830.09
2023-03-26T02:45:11.614Z,98827.50
2023-03-26T02:45:23.721Z,98824.00
2023-03-26T02:45:35.885Z,98833.66
2023-03-26T02:45:48.332Z,98831.94
2023-03-26T02:46:00.612Z,98830.19
2023-03-26T02:46:12.828Z,98827.56
2023-03-26T02:46:24.924Z,98826.66
2023-03-26T02:46:39.715Z,98831.84
2023-03-26T02:46:51.697Z,98824.91
2023-03-26T02:47:03.741Z,98830.88
2023-03-26T02:47:18.287Z,98829.13
2023-03-26T02:47:31.316Z,98831.84
2023-03-26T02:47:43.503Z,98832.72
2023-03-26T02:47:55.550Z,98831.84
2023-03-26T02:48:08.027Z,98830.16
2023-03-26T02:48:20.638Z,98822.38
2023-03-26T02:48:34.871Z,98821.50
2023-03-26T02:48:47.953Z,98823.16
2023-03-26T02:49:00.135Z,98828.34
2023-03-26T02:49:12.613Z,98820.56
2023-03-26T02:49:24.784Z,98823.06
2023-03-26T02:49:37.073Z,98823.16
2023-03-26T02:49:51.855Z,98821.38
2023-03-26T02:50:04.720Z,98823.16
2023-03-26T02:50:16.789Z,98821.50
2023-03-26T02:50:32.485Z,98818.91
2023-03-26T02:50:50.107Z,98815.53
2023-03-26T02:51:02.998Z,98811.97
2023-03-26T02:51:18.352Z,98824.88
2023-03-26T02:51:34.794Z,98823.06
2023-03-26T02:51:47.016Z,98823.06
2023-03-26T02:51:59.065Z,98817.88
2023-03-26T02:52:11.600Z,98817.88
2023-03-26T02:52:23.977Z,98817.88
2023-03-26T02:52:36.429Z,98811.84
2023-03-26T02:52:50.024Z,98816.19
2023-03-26T02:53:02.423Z,98805.88
2023-03-26T02:53:14.424Z,98808.56
2023-03-26T02:53:29.904Z,98801.66
2023-03-26T02:53:41.933Z,98802.44
2023-03-26T02:53:54.955Z,98803.28
2023-03-26T02:54:07.310Z,98806.06
2023-03-26T02:54:21.520Z,98807.75
2023-03-26T02:54:35.243Z,98811.13
2023-03-26T02:54:47.997Z,98812.81
2023-03-26T02:55:00.465Z,98814.50
2023-03-26T02:55:14.679Z,98811.78
2023-03-26T02:55:27.202Z,98810.03
2023-03-26T02:55:39.786Z,98808.31
2023-03-26T02:55:51.935Z,98805.72
2023-03-26T02:56:05.004Z,98812.72
2023-03-26T02:56:20.427Z,98811.00
2023-03-26T02:56:33.503Z,98802.44
2023-03-26T02:56:48.674Z,98805.00
2023-03-26T02:57:01.449Z,98804.16
2023-03-26T02:57:16.693Z,98804.94
2023-03-26T02:57:29.239Z,98803.25
2023-03-26T02:57:41.369Z,98803.38
2023-03-26T02:57:53.549Z,98799.31
2023-03-26T02:58:06.255Z,98807.03
2023-03-26T02:58:18.303Z,98803.81
2023-03-26T02:58:30.431Z,98800.50
2023-03-26T02:58:42.736Z,98794.41
2023-03-26T02:58:55.094Z,98796.06
2023-03-26T02:59:10.826Z,98796.75
2023-03-26T02:59:23.244Z,98799.31
2023-03-26T02:59:37.520Z,98784.59
2023-03-26T02:59:50.523Z,98798.34
2023-03-26T03:00:14.133Z,98795.69
2023-03-26T03:00:26.316Z,98793.84
2023-03-26T03:00:38.416Z,98788.63
2023-03-26T03:00:57.558Z,98796.38
2023-03-26T03:01:09.815Z,98793.81
2023-03-26T03:01:22.880Z,98796.31
2023-03-26T03:01:35.934Z,98797.19
2023-03-26T03:01:47.967Z,98796.38
2023-03-26T03:02:00.596Z,98793.81
2023-03-26T03:02:13.557Z,98792.94